Time;durP1;ratioP1;P1;durP2;ratioP2;P2;SDS_P1;SDS_P2;PMS_P1;PMS_P2;Temp;Humidity;BMP_temperature;BMP_pressure;BME280_temperature;BME280_humidity;BME280_pressure;Samples;Min_cycle;Max_cycle;Signal;HPM_P1;HPM_P2
2022/10/01 00:01:45;;;;;;;13.63;12.93;;;;;;;16.89;100.00;100803.72;5000747;28;20026;-66
2022/10/01 00:04:11;;;;;;;13.98;13.18;;;;;;;16.92;100.00;100807.84;5006759;28;20588;-65
2022/10/01 00:06:36;;;;;;;13.35;12.65;;;;;;;16.89;100.00;100810.94;5000466;28;20626;-65
2022/10/01 00:09:02;;;;;;;13.68;12.98;;;;;;;16.90;100.00;100813.44;4999472;28;20034;-65
2022/10/01 00:11:27;;;;;;;13.80;13.05;;;;;;;16.90;100.00;100813.44;5001206;28;20033;-65
2022/10/01 00:13:53;;;;;;;13.70;12.95;;;;;;;16.77;100.00;100819.63;4997688;28;20399;-65
2022/10/01 00:16:21;;;;;;;13.40;12.70;;;;;;;16.76;100.00;100823.34;4996679;28;20022;-65
2022/10/01 00:18:48;;;;;;;13.20;12.50;;;;;;;16.62;100.00;100821.66;5000321;28;20383;-66
2022/10/01 00:21:20;;;;;;;13.57;12.88;;;;;;;16.64;100.00;100819.59;5000127;28;20038;-65
2022/10/01 00:23:46;;;;;;;13.52;12.82;;;;;;;16.66;100.00;100819.38;4998096;28;20114;-64
2022/10/01 00:26:13;;;;;;;13.50;12.80;;;;;;;16.71;100.00;100825.81;4998844;28;20034;-65
2022/10/01 00:28:41;;;;;;;13.75;13.05;;;;;;;16.63;100.00;100827.84;4999786;28;20024;-66
2022/10/01 00:31:07;;;;;;;14.18;13.38;;;;;;;16.63;100.00;100830.53;4999418;28;20469;-65
2022/10/01 00:33:33;;;;;;;14.30;13.50;;;;;;;16.57;100.00;100824.94;5001457;28;20057;-65
2022/10/01 00:35:59;;;;;;;14.18;13.38;;;;;;;16.59;100.00;100819.38;5001064;28;20125;-64
2022/10/01 00:38:24;;;;;;;13.52;12.82;;;;;;;16.53;100.00;100823.72;4998807;28;20080;-65
2022/10/01 00:40:50;;;;;;;13.40;12.70;;;;;;;16.58;100.00;100820.41;4993199;28;20393;-66
2022/10/01 00:43:27;;;;;;;13.73;13.02;;;;;;;16.56;100.00;100830.53;4997654;28;20033;-66
2022/10/01 00:45:57;;;;;;;13.38;12.68;;;;;;;16.37;100.00;100828.66;4998714;28;20052;-66
2022/10/01 00:48:25;;;;;;;14.10;13.30;;;;;;;16.47;100.00;100813.03;4993350;28;20389;-65
2022/10/01 00:50:51;;;;;;;13.48;12.77;;;;;;;16.54;100.00;100822.69;4996147;28;20564;-66
2022/10/01 00:53:19;;;;;;;13.90;13.18;;;;;;;16.46;100.00;100816.72;4995385;28;20113;-65
2022/10/01 00:55:50;;;;;;;13.57;12.88;;;;;;;16.40;100.00;100823.72;5000809;28;20033;-65
2022/10/01 00:58:18;;;;;;;14.02;13.23;;;;;;;16.38;100.00;100832.97;4993072;28;20101;-65
2022/10/01 01:00:44;;;;;;;13.98;13.18;;;;;;;16.37;100.00;100816.09;5002686;28;20603;-65
2022/10/01 01:03:11;;;;;;;14.07;13.27;;;;;;;16.29;100.00;100810.94;4998175;28;20026;-65
2022/10/01 01:05:38;;;;;;;14.40;13.60;;;;;;;16.28;100.00;100812.78;4994982;28;20117;-65
2022/10/01 01:08:05;;;;;;;13.57;12.88;;;;;;;16.34;100.00;100815.69;5000980;28;20025;-65
2022/10/01 01:10:48;;;;;;;13.85;13.15;;;;;;;16.28;100.00;100817.31;5001809;28;20026;-64
2022/10/01 01:13:33;;;;;;;13.98;13.23;;;;;;;16.17;100.00;100817.94;4996670;28;20156;-64
2022/10/01 01:16:08;;;;;;;14.50;13.70;;;;;;;16.03;100.00;100815.25;4996417;28;20539;-64
2022/10/01 01:18:39;;;;;;;13.88;13.10;;;;;;;16.09;100.00;100816.28;4994199;28;20038;-65
2022/10/01 01:21:19;;;;;;;14.45;13.63;;;;;;;16.14;100.00;100815.66;4999586;28;20038;-65
2022/10/01 01:23:50;;;;;;;14.40;13.60;;;;;;;16.11;100.00;100819.59;4997635;28;20122;-65
2022/10/01 01:26:29;;;;;;;14.55;13.68;;;;;;;15.99;100.00;100823.88;4999461;28;20544;-65
2022/10/01 01:29:05;;;;;;;14.13;13.32;;;;;;;15.62;100.00;100827.88;4997135;28;20037;-65
2022/10/01 01:31:36;;;;;;;14.30;13.50;;;;;;;15.75;100.00;100828.75;5000247;28;20121;-65
2022/10/01 01:34:11;;;;;;;16.52;15.43;;;;;;;15.54;100.00;100834.22;4994745;28;20026;-65
2022/10/01 01:36:38;;;;;;;;;;;;;;;15.80;100.00;100841.53;4999224;28;20131;-65
2022/10/01 01:39:08;;;;;;;14.50;13.70;;;;;;;15.78;100.00;100832.06;5004805;28;19924;-66
2022/10/01 01:41:39;;;;;;;14.27;13.48;;;;;;;15.82;100.00;100827.97;5000015;28;20061;-66
2022/10/01 01:44:10;;;;;;;14.43;13.63;;;;;;;15.84;100.00;100828.56;4995215;28;20026;-66
2022/10/01 01:46:40;;;;;;;13.98;13.25;;;;;;;15.78;100.00;100819.50;5005477;28;20056;-66
2022/10/01 01:49:07;;;;;;;15.27;14.38;;;;;;;15.55;100.00;100827.81;5000129;28;20022;-66
2022/10/01 01:51:42;;;;;;;14.55;13.75;;;;;;;15.54;100.00;100828.03;4997795;28;20034;-65
2022/10/01 01:54:08;;;;;;;14.95;14.10;;;;;;;15.57;100.00;100825.81;4994959;28;20045;-65
2022/10/01 01:56:34;;;;;;;14.05;13.25;;;;;;;15.58;100.00;100838.16;4995936;28;20041;-66
2022/10/01 01:59:02;;;;;;;15.85;14.85;;;;;;;15.74;100.00;100837.00;4997078;28;20101;-66
2022/10/01 02:01:41;;;;;;;14.15;13.35;;;;;;;15.76;100.00;100837.59;4996043;28;20048;-66
2022/10/01 02:04:09;;;;;;;14.35;13.52;;;;;;;15.77;100.00;100839.25;4995368;28;20033;-67
2022/10/01 02:06:43;;;;;;;15.35;14.38;;;;;;;15.78;100.00;100843.56;4997432;28;20021;-66
2022/10/01 02:09:16;;;;;;;13.77;13.05;;;;;;;15.82;100.00;100841.34;4994349;28;20104;-66
2022/10/01 02:12:06;;;;;;;14.98;14.07;;;;;;;15.70;100.00;100854.44;4995246;28;20041;-66
2022/10/01 02:15:05;;;;;;;13.73;12.98;;;;;;;15.45;100.00;100859.47;5006723;28;20029;-64
2022/10/01 02:17:35;;;;;;;14.27;13.48;;;;;;;15.42;100.00;100851.81;5000088;28;20046;-65
2022/10/01 02:20:20;;;;;;;13.40;12.70;;;;;;;15.55;100.00;100861.75;4998948;28;20028;-65
2022/10/01 02:22:46;;;;;;;;;;;;;;;15.41;100.00;100858.19;4997883;28;20026;-66
2022/10/01 02:25:16;;;;;;;13.63;12.93;;;;;;;15.40;100.00;100860.06;5000296;28;20016;-66
2022/10/01 02:27:54;;;;;;;13.45;12.75;;;;;;;15.24;100.00;100864.91;4996727;28;20026;-66
2022/10/01 02:30:20;;;;;;;13.98;13.18;;;;;;;15.24;100.00;100862.22;4994661;28;20393;-66
2022/10/01 02:32:48;;;;;;;13.82;13.07;;;;;;;15.17;100.00;100875.56;4999291;28;20061;-66
2022/10/01 02:35:16;;;;;;;13.60;12.90;;;;;;;15.16;100.00;100877.41;4990477;28;20049;-66
2022/10/01 02:37:44;;;;;;;14.05;13.30;;;;;;;14.90;100.00;100877.22;4995293;28;20022;-66
2022/10/01 02:40:14;;;;;;;14.40;13.60;;;;;;;15.14;100.00;100871.44;4998494;28;20524;-66
2022/10/01 02:42:48;;;;;;;14.35;13.55;;;;;;;15.22;100.00;100880.31;4996075;28;20053;-65
2022/10/01 02:45:21;;;;;;;14.88;14.00;;;;;;;15.12;100.00;100869.97;4991525;28;20041;-66
2022/10/01 02:47:53;;;;;;;14.63;13.82;;;;;;;15.13;100.00;100868.94;4993527;28;20037;-65
2022/10/01 02:50:22;;;;;;;14.88;14.02;;;;;;;15.19;100.00;100873.50;4994543;28;20117;-66
2022/10/01 02:52:53;;;;;;;14.73;13.93;;;;;;;15.26;100.00;100871.69;4992350;28;20033;-66
2022/10/01 02:55:28;;;;;;;14.20;13.40;;;;;;;15.24;100.00;100870.25;4996010;28;20112;-65
2022/10/01 02:57:57;;;;;;;14.38;13.57;;;;;;;15.28;100.00;100874.19;4995776;28;20436;-65
2022/10/01 03:00:24;;;;;;;14.02;13.23;;;;;;;15.22;100.00;100867.78;4995366;28;20030;-66
2022/10/01 03:02:49;;;;;;;14.43;13.63;;;;;;;15.24;100.00;100881.75;4994973;28;20034;-65
2022/10/01 03:05:16;;;;;;;14.30;13.50;;;;;;;15.17;100.00;100879.03;4994107;28;20041;-65
2022/10/01 03:07:42;;;;;;;13.93;13.23;;;;;;;15.22;100.00;100877.66;4994987;28;20065;-65
2022/10/01 03:10:09;;;;;;;16.05;15.05;;;;;;;15.12;100.00;100869.97;4993478;28;20026;-66
2022/10/01 03:12:36;;;;;;;13.77;13.07;;;;;;;14.82;100.00;100877.34;4993756;28;20061;-65
2022/10/01 03:15:03;;;;;;;14.65;13.85;;;;;;;14.93;100.00;100877.66;5002412;28;20025;-65
2022/10/01 03:17:28;;;;;;;13.63;12.93;;;;;;;14.78;100.00;100884.13;4993899;28;20464;-65
2022/10/01 03:19:54;;;;;;;14.70;13.90;;;;;;;14.70;100.00;100878.91;4997684;28;20110;-65
2022/10/01 03:22:21;;;;;;;14.40;13.60;;;;;;;14.67;100.00;100874.78;4996111;28;20027;-65
2022/10/01 03:24:51;;;;;;;14.52;13.73;;;;;;;14.88;100.00;100877.41;4996024;28;20026;-65
2022/10/01 03:27:17;;;;;;;14.98;14.13;;;;;;;14.91;100.00;100873.53;4995336;28;20029;-65
2022/10/01 03:29:43;;;;;;;14.52;13.73;;;;;;;14.86;100.00;100870.63;4997457;28;20023;-65
2022/10/01 03:32:10;;;;;;;14.02;13.25;;;;;;;14.82;100.00;100872.84;4996376;28;20058;-65
2022/10/01 03:34:35;;;;;;;13.57;12.88;;;;;;;14.83;100.00;100871.81;4995174;28;20133;-65
2022/10/01 03:37:00;;;;;;;14.20;13.40;;;;;;;14.79;100.00;100869.75;4997808;28;20125;-66
2022/10/01 03:39:26;;;;;;;14.40;13.60;;;;;;;14.63;100.00;100871.69;4993177;28;20033;-66
2022/10/01 03:41:52;;;;;;;13.63;12.93;;;;;;;14.63;100.00;100862.84;4991818;28;20042;-65
2022/10/01 03:44:18;;;;;;;13.55;12.85;;;;;;;14.68;100.00;100857.72;4994433;28;20120;-65
2022/10/01 03:46:44;;;;;;;14.52;13.73;;;;;;;14.60;100.00;100853.34;4984906;28;20042;-65
2022/10/01 03:49:09;;;;;;;14.25;13.45;;;;;;;14.67;100.00;100853.41;4990783;28;20049;-65
2022/10/01 03:51:36;;;;;;;14.20;13.40;;;;;;;14.60;100.00;100850.69;4993968;28;20030;-66
2022/10/01 03:54:03;;;;;;;13.95;13.15;;;;;;;14.66;100.00;100854.44;4991105;28;20023;-65
2022/10/01 03:56:29;;;;;;;13.93;13.13;;;;;;;14.71;100.00;100854.69;5000389;28;20029;-65
2022/10/01 03:58:55;;;;;;;13.82;13.07;;;;;;;14.60;100.00;100860.53;4996348;28;20117;-64
2022/10/01 04:01:21;;;;;;;13.88;13.10;;;;;;;14.65;100.00;100863.47;4998452;28;20034;-64
2022/10/01 04:03:48;;;;;;;13.75;13.02;;;;;;;14.41;100.00;100875.34;4995097;28;20097;-65
2022/10/01 04:06:13;;;;;;;13.90;13.15;;;;;;;14.55;100.00;100876.34;5000896;28;20436;-64
2022/10/01 04:08:39;;;;;;;13.60;12.90;;;;;;;14.55;100.00;100874.50;5001834;28;20109;-65
2022/10/01 04:11:06;;;;;;;13.68;12.98;;;;;;;14.69;100.00;100880.78;4995269;28;20497;-65
2022/10/01 04:13:32;;;;;;;13.25;12.55;;;;;;;14.80;100.00;100884.75;4993553;28;20048;-65
2022/10/01 04:15:57;;;;;;;13.82;13.05;;;;;;;15.02;100.00;100888.19;4989421;28;20031;-65
2022/10/01 04:18:23;;;;;;;13.20;12.50;;;;;;;15.13;100.00;100892.97;4999798;28;20022;-65
2022/10/01 04:20:48;;;;;;;13.52;12.82;;;;;;;15.75;100.00;100892.97;5006639;28;20084;-66
2022/10/01 04:23:14;;;;;;;13.32;12.63;;;;;;;16.03;100.00;100892.84;5001291;28;20032;-66
2022/10/01 04:25:40;;;;;;;13.43;12.73;;;;;;;16.43;100.00;100886.75;4999843;28;20060;-65
2022/10/01 04:28:09;;;;;;;13.40;12.70;;;;;;;16.75;100.00;100885.16;5003539;28;20041;-65
2022/10/01 04:30:37;;;;;;;12.85;12.18;;;;;;;16.83;100.00;100876.91;5000106;28;20052;-66
2022/10/01 04:33:04;;;;;;;12.73;12.07;;;;;;;16.48;100.00;100886.97;5003508;28;20058;-66
2022/10/01 04:35:31;;;;;;;12.85;12.20;;;;;;;16.25;100.00;100869.44;4997519;28;20141;-66
2022/10/01 04:38:02;;;;;;;12.80;12.10;;;;;;;16.53;100.00;100863.91;5005339;28;20472;-65
2022/10/01 04:40:29;;;;;;;12.60;12.00;;;;;;;16.71;100.00;100868.66;4998655;28;20064;-65
2022/10/01 04:42:55;;;;;;;12.95;12.25;;;;;;;16.40;100.00;100874.59;5003393;28;20117;-66
2022/10/01 04:45:20;;;;;;;12.45;11.85;;;;;;;16.34;100.00;100871.91;4996235;28;20109;-67
2022/10/01 04:47:47;;;;;;;13.40;12.70;;;;;;;17.29;100.00;100876.84;4998250;28;20117;-66
2022/10/01 04:50:15;;;;;;;12.50;11.90;;;;;;;17.63;100.00;100873.03;5000625;28;20033;-65
2022/10/01 04:52:40;;;;;;;12.32;11.73;;;;;;;19.04;100.00;100864.66;4995232;28;20052;-66
2022/10/01 04:55:06;;;;;;;12.45;11.85;;;;;;;21.13;100.00;100867.53;5000860;28;20057;-67
2022/10/01 04:57:32;;;;;;;12.50;11.90;;;;;;;22.46;100.00;100870.19;5003081;28;20478;-66
2022/10/01 04:59:58;;;;;;;12.52;11.93;;;;;;;22.72;100.00;100874.13;4998868;28;20034;-65
2022/10/01 05:02:23;;;;;;;12.43;11.82;;;;;;;22.57;100.00;100877.41;5000689;28;20104;-68
2022/10/01 05:04:49;;;;;;;11.65;11.15;;;;;;;23.18;100.00;100872.94;5003482;28;20033;-66
2022/10/01 05:07:14;;;;;;;12.10;11.50;;;;;;;20.33;100.00;100877.97;4998823;28;20114;-65
2022/10/01 05:09:40;;;;;;;12.05;11.45;;;;;;;21.22;100.00;100885.00;4996558;28;20029;-67
2022/10/01 05:12:06;;;;;;;12.02;11.43;;;;;;;19.83;100.00;100881.81;4996589;28;20048;-66
2022/10/01 05:14:32;;;;;;;12.38;11.77;;;;;;;20.05;100.00;100882.13;4998682;28;20117;-67
2022/10/01 05:16:58;;;;;;;12.50;11.90;;;;;;;21.92;100.00;100885.94;4993607;28;20125;-66
2022/10/01 05:19:27;;;;;;;12.63;12.02;;;;;;;22.56;100.00;100881.19;5000773;28;20026;-66
2022/10/01 05:21:53;;;;;;;12.77;12.18;;;;;;;20.09;100.00;100885.19;4993232;28;20488;-66
2022/10/01 05:24:18;;;;;;;12.55;11.95;;;;;;;23.10;100.00;100890.41;5005112;28;20034;-66
2022/10/01 05:26:44;;;;;;;12.30;11.70;;;;;;;24.97;100.00;100890.03;5004377;28;20048;-66
2022/10/01 05:29:10;;;;;;;12.35;11.75;;;;;;;26.73;100.00;100878.34;4998664;28;20030;-67
2022/10/01 05:31:36;;;;;;;11.93;11.38;;;;;;;26.20;100.00;100890.56;4992417;28;20121;-66
2022/10/01 05:34:01;;;;;;;12.20;11.60;;;;;;;25.49;100.00;100885.72;4993171;28;20030;-66
2022/10/01 05:36:27;;;;;;;12.07;11.50;;;;;;;26.42;97.13;100893.88;4994911;28;20043;-67
2022/10/01 05:38:53;;;;;;;12.73;12.13;;;;;;;27.37;89.72;100896.78;4999725;28;20079;-67
2022/10/01 05:41:18;;;;;;;12.35;11.75;;;;;;;25.99;98.06;100898.66;4992094;28;20029;-67
2022/10/01 05:43:48;;;;;;;11.40;10.90;;;;;;;24.22;100.00;100890.97;4988229;28;20041;-65
2022/10/01 05:46:13;;;;;;;12.20;11.60;;;;;;;24.39;100.00;100893.63;5000408;28;20034;-66
2022/10/01 05:48:39;;;;;;;11.82;11.32;;;;;;;25.27;100.00;100891.31;4994962;28;20431;-65
2022/10/01 05:51:06;;;;;;;12.70;12.10;;;;;;;24.03;100.00;100887.00;4999346;28;20080;-66
2022/10/01 05:53:33;;;;;;;11.75;11.25;;;;;;;25.23;100.00;100882.88;4993136;28;20552;-65
2022/10/01 05:56:01;;;;;;;12.50;11.90;;;;;;;24.98;100.00;100880.78;4998376;28;20457;-66
2022/10/01 05:58:27;;;;;;;12.63;12.02;;;;;;;22.24;100.00;100876.28;4996136;28;20018;-65
2022/10/01 06:00:55;;;;;;;13.00;12.40;;;;;;;23.69;100.00;100873.63;5000857;28;20515;-65
2022/10/01 06:03:20;;;;;;;12.23;11.63;;;;;;;24.27;100.00;100872.06;5001323;28;20017;-65
2022/10/01 06:05:46;;;;;;;12.73;12.13;;;;;;;24.52;100.00;100875.00;4991829;28;20263;-65
2022/10/01 06:08:12;;;;;;;12.60;12.00;;;;;;;25.26;100.00;100885.03;4999870;28;20027;-66
2022/10/01 06:10:38;;;;;;;12.65;12.05;;;;;;;25.98;100.00;100893.50;4991421;28;20075;-66
2022/10/01 06:13:04;;;;;;;12.63;12.02;;;;;;;26.93;100.00;100883.78;4995872;28;20042;-66
2022/10/01 06:15:33;;;;;;;13.02;12.43;;;;;;;28.49;94.88;100890.75;4989716;28;20713;-65
2022/10/01 06:18:08;;;;;;;12.80;12.20;;;;;;;28.81;90.72;100894.84;4999211;28;20029;-65
2022/10/01 06:20:34;;;;;;;12.23;11.63;;;;;;;28.02;94.50;100894.06;4993125;28;20400;-66
2022/10/01 06:23:00;;;;;;;12.27;11.68;;;;;;;27.98;95.55;100890.25;4992462;28;20060;-66
2022/10/01 06:25:30;;;;;;;12.32;11.73;;;;;;;26.79;96.90;100896.31;4999483;28;20026;-66
2022/10/01 06:27:58;;;;;;;12.70;12.10;;;;;;;28.46;88.61;100901.44;4990036;28;20037;-66
2022/10/01 06:30:27;;;;;;;12.73;12.13;;;;;;;29.14;88.24;100899.44;4996578;28;20109;-66
2022/10/01 06:33:01;;;;;;;12.18;11.57;;;;;;;27.63;92.71;100897.50;4993554;28;20041;-67
2022/10/01 06:35:27;;;;;;;;;;;;;;;27.34;93.47;100893.81;4995511;28;20050;-66
2022/10/01 06:37:52;;;;;;;12.57;11.98;;;;;;;26.30;95.29;100896.84;4995513;28;20012;-66
2022/10/01 06:40:18;;;;;;;12.38;11.77;;;;;;;27.09;91.92;100892.75;5000492;28;20026;-66
2022/10/01 06:42:47;;;;;;;12.43;11.82;;;;;;;27.62;90.71;100898.59;4998035;28;20044;-67
2022/10/01 06:45:14;;;;;;;12.68;12.07;;;;;;;27.68;88.76;100893.97;4994279;28;20039;-67
2022/10/01 06:47:40;;;;;;;12.18;11.57;;;;;;;27.69;89.10;100895.59;4997837;28;20544;-66
2022/10/01 06:50:06;;;;;;;12.45;11.85;;;;;;;27.92;88.85;100899.59;4993577;28;20029;-67
2022/10/01 06:52:50;;;;;;;12.40;11.80;;;;;;;30.14;76.86;100902.34;4990246;28;20034;-66
2022/10/01 06:55:19;;;;;;;12.02;11.50;;;;;;;29.93;74.50;100908.06;4989377;28;20022;-67
2022/10/01 06:57:45;;;;;;;12.40;11.80;;;;;;;31.86;61.59;100914.03;4991305;28;20026;-67
2022/10/01 07:00:12;;;;;;;12.55;11.95;;;;;;;29.78;64.37;100912.94;4999653;28;20053;-71
2022/10/01 07:02:38;;;;;;;12.48;11.88;;;;;;;28.63;80.21;100908.09;4989308;28;20117;-67
2022/10/01 07:05:07;;;;;;;12.32;11.73;;;;;;;27.70;85.72;100908.97;4995826;28;20046;-64
2022/10/01 07:07:36;;;;;;;11.85;11.35;;;;;;;26.76;86.52;100912.41;4990223;28;20030;-67
2022/10/01 07:10:03;;;;;;;11.75;11.25;;;;;;;28.41;77.39;100917.81;4990428;28;20084;-69
2022/10/01 07:12:29;;;;;;;11.57;11.07;;;;;;;29.64;70.13;100918.31;4993578;28;20041;-66
2022/10/01 07:14:54;;;;;;;12.23;11.63;;;;;;;28.81;74.93;100912.03;4993343;28;20030;-66
2022/10/01 07:17:21;;;;;;;11.50;11.00;;;;;;;29.05;81.66;100914.03;4992604;28;20141;-65
2022/10/01 07:19:46;;;;;;;12.10;11.50;;;;;;;28.55;84.30;100916.09;4998942;28;20429;-66
2022/10/01 07:22:12;;;;;;;12.43;11.82;;;;;;;27.74;87.51;100909.19;4995695;28;20124;-67
2022/10/01 07:24:37;;;;;;;13.52;12.82;;;;;;;28.37;83.40;100906.69;4995342;28;20026;-65
2022/10/01 07:27:03;;;;;;;12.63;12.02;;;;;;;26.22;94.46;100899.25;4986985;28;20129;-66
2022/10/01 07:29:30;;;;;;;11.63;11.13;;;;;;;26.62;96.39;100893.88;4993130;28;20128;-66
2022/10/01 07:32:00;;;;;;;12.25;11.65;;;;;;;27.92;91.17;100889.50;4992303;28;20038;-66
2022/10/01 07:34:29;;;;;;;12.77;12.18;;;;;;;29.56;87.80;100883.41;4998816;28;20034;-67
2022/10/01 07:36:56;;;;;;;11.90;11.40;;;;;;;30.78;77.10;100892.56;4996265;28;20049;-66
2022/10/01 07:39:22;;;;;;;12.10;11.55;;;;;;;31.76;66.67;100886.81;4988974;28;20031;-66
2022/10/01 07:41:50;;;;;;;11.35;10.85;;;;;;;31.60;68.57;100884.41;5004108;28;20052;-67
2022/10/01 07:44:16;;;;;;;12.02;11.52;;;;;;;30.80;73.98;100884.88;4997996;28;20036;-66
2022/10/01 07:46:42;;;;;;;12.25;11.65;;;;;;;30.18;78.40;100882.28;4996183;28;20026;-66
2022/10/01 07:49:08;;;;;;;12.23;11.63;;;;;;;30.61;81.70;100881.31;4992692;28;20488;-67
2022/10/01 07:51:35;;;;;;;12.30;11.70;;;;;;;30.50;77.21;100881.50;4996622;28;20030;-67
2022/10/01 07:54:01;;;;;;;11.70;11.20;;;;;;;30.63;75.27;100876.34;5006438;28;20036;-64
2022/10/01 07:56:27;;;;;;;11.60;11.10;;;;;;;30.85;69.95;100864.75;5006322;28;20052;-67
2022/10/01 07:58:57;;;;;;;11.60;11.10;;;;;;;32.71;60.08;100860.94;4998072;28;20463;-66
2022/10/01 08:01:23;;;;;;;11.50;11.00;;;;;;;33.84;53.61;100864.06;5009752;28;20033;-67
2022/10/01 08:03:50;;;;;;;12.30;11.70;;;;;;;33.30;51.29;100859.91;5002958;28;20213;-68
2022/10/01 08:06:17;;;;;;;11.68;11.18;;;;;;;32.82;57.63;100849.66;5000716;28;20456;-65
2022/10/01 08:08:43;;;;;;;12.40;11.80;;;;;;;33.24;49.76;100849.06;5003608;28;20034;-66
2022/10/01 08:11:12;;;;;;;11.77;11.27;;;;;;;34.05;49.81;100851.31;4992624;28;20018;-66
2022/10/01 08:13:38;;;;;;;11.60;11.10;;;;;;;32.96;53.58;100842.16;4994322;28;20069;-67
2022/10/01 08:16:05;;;;;;;11.70;11.20;;;;;;;33.22;55.58;100839.50;4997638;28;20092;-67
2022/10/01 08:18:31;;;;;;;11.73;11.23;;;;;;;32.29;52.73;100834.81;4997663;28;20049;-67
2022/10/01 08:21:02;;;;;;;12.95;12.35;;;;;;;32.21;48.88;100830.06;4983076;28;20091;-66
2022/10/01 08:23:30;;;;;;;12.73;12.13;;;;;;;31.09;50.24;100825.13;5006259;28;20121;-67
2022/10/01 08:26:05;;;;;;;11.48;10.98;;;;;;;30.89;52.37;100820.03;5010092;28;20103;-67
2022/10/01 08:28:32;;;;;;;11.85;11.35;;;;;;;30.59;52.12;100821.41;4997474;28;20030;-67
2022/10/01 08:30:58;;;;;;;12.40;11.80;;;;;;;30.08;55.09;100814.00;5001557;28;20068;-66
2022/10/01 08:33:23;;;;;;;12.20;11.60;;;;;;;30.40;53.69;100815.16;4998338;28;20133;-68
2022/10/01 08:35:50;;;;;;;12.48;11.88;;;;;;;30.54;54.44;100816.00;5006252;28;20389;-67
2022/10/01 08:38:18;;;;;;;11.82;11.32;;;;;;;30.26;56.00;100810.47;5009406;28;20409;-67
2022/10/01 08:40:49;;;;;;;12.00;11.45;;;;;;;30.19;57.57;100810.03;5004172;28;20038;-67
2022/10/01 08:43:26;;;;;;;11.80;11.30;;;;;;;31.00;56.02;100801.47;4999858;28;20147;-67
2022/10/01 08:45:56;;;;;;;12.38;11.77;;;;;;;31.38;53.11;100795.78;5000870;28;20030;-68
2022/10/01 08:48:43;;;;;;;12.80;12.20;;;;;;;31.47;52.58;100785.72;5002584;28;20101;-67
2022/10/01 08:51:25;;;;;;;12.48;11.88;;;;;;;32.08;51.30;100787.03;5001918;28;20113;-67
2022/10/01 08:54:06;;;;;;;12.50;11.90;;;;;;;33.74;45.42;100782.66;5000195;28;20038;-65
2022/10/01 08:56:45;;;;;;;12.50;11.90;;;;;;;33.59;46.37;100780.38;5005994;28;20033;-66
2022/10/01 08:59:16;;;;;;;12.43;11.82;;;;;;;33.05;45.87;100778.97;5005773;28;20375;-68
2022/10/01 09:01:42;;;;;;;12.98;12.38;;;;;;;32.61;49.02;100772.47;5002420;28;20204;-66
2022/10/01 09:04:09;;;;;;;12.55;11.95;;;;;;;33.59;46.88;100772.13;5003179;28;20471;-66
2022/10/01 09:06:37;;;;;;;12.40;11.80;;;;;;;33.71;45.27;100768.72;4996738;28;20030;-67
2022/10/01 09:09:30;;;;;;;13.20;12.60;;;;;;;33.26;45.73;100763.50;5003104;28;20690;-67
2022/10/01 09:11:57;;;;;;;12.20;11.60;;;;;;;34.02;44.54;100763.06;5001311;28;20456;-67
2022/10/01 09:14:31;;;;;;;12.05;11.48;;;;;;;33.10;45.23;100757.66;4998845;28;20413;-67
2022/10/01 09:17:29;;;;;;;12.63;12.02;;;;;;;32.57;48.56;100753.09;4996678;28;20030;-68
2022/10/01 09:20:05;;;;;;;12.70;12.10;;;;;;;30.97;51.90;100753.56;5004265;28;20029;-68
2022/10/01 09:22:40;;;;;;;11.80;11.30;;;;;;;30.49;52.47;100729.31;5002198;28;20026;-66
2022/10/01 09:25:26;;;;;;;12.15;11.55;;;;;;;30.56;55.10;100744.53;5006127;28;20026;-66
2022/10/01 09:28:32;;;;;;;12.57;11.98;;;;;;;30.05;59.19;100734.47;4975668;28;20108;-66
2022/10/01 09:31:25;;;;;;;12.05;11.45;;;;;;;29.51;59.44;100723.00;4994109;28;20040;-67
2022/10/01 09:34:09;;;;;;;12.32;11.73;;;;;;;28.46;70.94;100705.75;4995754;28;20032;-68
2022/10/01 09:36:51;;;;;;;;;;;;;;;28.95;69.75;100728.41;4998632;28;20141;-66
2022/10/01 09:39:30;;;;;;;12.70;12.10;;;;;;;29.22;65.80;100720.38;4996831;28;19921;-66
2022/10/01 09:41:57;;;;;;;13.20;12.50;;;;;;;28.65;72.27;100719.47;4993914;28;20124;-67
2022/10/01 09:44:28;;;;;;;12.45;11.85;;;;;;;28.90;71.71;100718.34;4999377;28;20026;-67
2022/10/01 09:46:54;;;;;;;12.32;11.73;;;;;;;28.63;73.74;100717.00;4997684;28;20038;-66
2022/10/01 09:49:42;;;;;;;11.88;11.38;;;;;;;28.94;71.24;100713.13;5002721;28;20038;-66
2022/10/01 09:52:28;;;;;;;12.10;11.50;;;;;;;28.38;74.58;100703.66;4976187;28;20041;-67
2022/10/01 09:55:32;;;;;;;12.15;11.55;;;;;;;28.92;74.53;100698.94;4995751;28;20421;-66
2022/10/01 09:58:11;;;;;;;12.52;11.93;;;;;;;28.74;75.22;100687.69;4996868;28;20030;-66
2022/10/01 10:00:39;;;;;;;13.27;12.57;;;;;;;28.23;78.60;100681.94;4993913;28;20050;-66
2022/10/01 10:03:04;;;;;;;12.82;12.23;;;;;;;28.60;70.11;100690.28;5002198;28;20033;-66
2022/10/01 10:05:45;;;;;;;12.40;11.80;;;;;;;28.77;73.69;100689.81;5000512;28;20040;-67
2022/10/01 10:08:24;;;;;;;12.60;12.00;;;;;;;28.60;71.10;100684.03;4999917;28;20396;-67
2022/10/01 10:11:01;;;;;;;11.55;11.05;;;;;;;28.98;70.84;100676.75;4995543;28;20084;-68
2022/10/01 10:13:38;;;;;;;12.43;11.82;;;;;;;28.36;72.00;100675.84;5002798;28;20421;-66
2022/10/01 10:16:44;;;;;;;12.65;12.05;;;;;;;28.41;72.99;100667.59;4995989;28;20101;-66
2022/10/01 10:19:28;;;;;;;12.52;11.93;;;;;;;28.51;69.89;100661.22;4955369;28;20031;-67
2022/10/01 10:21:59;;;;;;;12.48;11.88;;;;;;;28.13;69.29;100655.59;4995458;28;20125;-65
2022/10/01 10:24:31;;;;;;;12.57;11.98;;;;;;;28.49;70.43;100647.03;4996075;28;20030;-66
2022/10/01 10:26:58;;;;;;;11.88;11.30;;;;;;;28.04;70.99;100649.13;5000194;28;20402;-66
2022/10/01 10:29:29;;;;;;;12.23;11.63;;;;;;;28.22;72.19;100644.88;4999546;28;20034;-67
2022/10/01 10:31:56;;;;;;;11.73;11.18;;;;;;;28.03;73.68;100642.84;5000496;28;20042;-65
2022/10/01 10:34:30;;;;;;;13.10;12.40;;;;;;;28.23;74.54;100639.13;4999103;28;20109;-66
2022/10/01 10:36:58;;;;;;;13.07;12.40;;;;;;;27.70;74.55;100635.56;4990174;28;20050;-66
2022/10/01 10:39:30;;;;;;;12.10;11.50;;;;;;;28.03;76.13;100633.88;4989442;28;20109;-67
2022/10/01 10:41:58;;;;;;;12.35;11.75;;;;;;;28.51;75.27;100640.19;4990249;28;20034;-66
2022/10/01 10:44:30;;;;;;;12.02;11.43;;;;;;;27.92;76.54;100633.16;4994468;28;20861;-66
2022/10/01 10:47:00;;;;;;;11.93;11.32;;;;;;;28.46;77.74;100629.31;5002605;28;20042;-66
2022/10/01 10:49:29;;;;;;;13.02;12.32;;;;;;;28.12;75.32;100618.50;4996064;28;20084;-65
2022/10/01 10:51:59;;;;;;;12.48;11.88;;;;;;;28.09;75.94;100624.53;4994583;28;20038;-67
2022/10/01 10:54:38;;;;;;;12.45;11.85;;;;;;;28.40;74.96;100621.50;4986213;28;20436;-67
2022/10/01 10:57:36;;;;;;;12.88;12.27;;;;;;;28.27;72.63;100612.06;4980881;28;20489;-67
2022/10/01 11:00:17;;;;;;;12.18;11.57;;;;;;;28.23;72.75;100613.75;4982330;28;20132;-67
2022/10/01 11:02:52;;;;;;;11.90;11.30;;;;;;;28.24;73.70;100604.47;4989490;28;20033;-67
2022/10/01 11:05:26;;;;;;;12.38;11.77;;;;;;;28.63;72.15;100605.09;4991055;28;20050;-65
2022/10/01 11:07:59;;;;;;;12.45;11.85;;;;;;;28.28;74.42;100600.88;4995803;28;20034;-66
2022/10/01 11:10:30;;;;;;;11.50;11.00;;;;;;;27.92;77.64;100595.00;4991316;28;20037;-68
2022/10/01 11:13:23;;;;;;;11.82;11.27;;;;;;;27.97;76.61;100586.75;4983283;28;20041;-66
2022/10/01 11:16:02;;;;;;;12.43;11.82;;;;;;;28.09;77.87;100591.81;4990810;28;20050;-67
2022/10/01 11:19:00;;;;;;;12.55;11.95;;;;;;;28.31;76.06;100591.31;4995975;28;20125;-67
2022/10/01 11:21:38;;;;;;;12.77;12.18;;;;;;;28.33;77.57;100576.28;4981522;28;20046;-68